UGSB/BUS METAR and TAF weather

Enter ICAO airport designator
Station Type Date Time Source
UGSB METAR 2020/07/14 07:30 UTC NOAA

UGSB 140730Z 14005KT 100V180 9999 SCT028 25/21 Q1011 R13/29//55 NOSIG


Station Type Date Time Source
UGSB Decoded METAR 2020/07/14 07:30 UTC NOAA

Station name not available
Jul 14, 2020 - 03:30 AM EDT / 2020.07.14 0730 UTC
Wind: from the SE (140 degrees) at 6 MPH (5 KT) (direction variable):0
Visibility: greater than 7 mile(s):0
Sky conditions: partly cloudy
Temperature: 77 F (25 C)
Dew Point: 69 F (21 C)
Relative Humidity: 78%
Pressure (altimeter): 29.85 in. Hg (1011 hPa)
ob: UGSB 140730Z 14005KT 100V180 9999 SCT028 25/21 Q1011 R13/29//55 NOSIG
cycle: 7

Station Type Date Time Source
UGSB TAF 2020/07/14 06:04 UTC NOAA

TAF UGSB 140500Z 1406/1506 23010KT 9999 SCT025 BKN070 TX24/1411Z TN20/1501Z
TEMPO 1406/1415 VRB12KT 4000 TSRA SCT015 BKN025CB
TEMPO 1415/1422 VRB12KT 4000 TSRA SCT015 BKN025CB
BECMG 1418/1421 13010KT

Example: see airport list